createdAt,value
2024-01-11T00:01:35.100Z,75.55
2024-01-11T00:04:01.548Z,75.79
2024-01-11T00:06:28.098Z,75.95
2024-01-11T00:08:54.977Z,75.99
2024-01-11T00:11:21.458Z,76.23
2024-01-11T00:13:47.986Z,76.39
2024-01-11T00:16:14.491Z,76.44
2024-01-11T00:18:41.010Z,76.54
2024-01-11T00:21:08.910Z,77.00
2024-01-11T00:23:35.450Z,77.38
2024-01-11T00:26:02.006Z,77.09
2024-01-11T00:28:28.496Z,76.98
2024-01-11T00:30:55.295Z,77.97
2024-01-11T00:33:21.888Z,77.80
2024-01-11T00:35:48.677Z,78.16
2024-01-11T00:38:15.247Z,78.10
2024-01-11T00:40:42.035Z,78.25
2024-01-11T00:43:08.541Z,78.27
2024-01-11T00:45:35.040Z,78.37
2024-01-11T00:48:01.527Z,78.44
2024-01-11T00:50:28.429Z,78.62
2024-01-11T00:52:55.051Z,79.17
2024-01-11T00:55:21.499Z,79.10
2024-01-11T00:57:48.522Z,79.69
2024-01-11T01:00:15.292Z,79.76
2024-01-11T01:02:42.004Z,80.11
2024-01-11T01:05:09.470Z,79.94
2024-01-11T01:07:36.054Z,80.07
2024-01-11T01:10:03.076Z,80.39
2024-01-11T01:12:29.935Z,80.62
2024-01-11T01:14:56.759Z,80.79
2024-01-11T01:17:23.735Z,81.05
2024-01-11T01:19:50.782Z,81.11
2024-01-11T01:22:17.289Z,81.68
2024-01-11T01:24:43.827Z,81.43
2024-01-11T01:27:13.474Z,81.72
2024-01-11T01:29:40.100Z,81.97
2024-01-11T01:32:06.698Z,81.96
2024-01-11T01:34:33.324Z,82.24
2024-01-11T01:37:00.357Z,82.57
2024-01-11T01:39:28.039Z,82.99
2024-01-11T01:41:54.542Z,82.99
2024-01-11T01:44:21.128Z,83.63
2024-01-11T01:46:49.857Z,83.52
2024-01-11T01:49:19.461Z,83.51
2024-01-11T01:51:46.773Z,83.83
2024-01-11T01:54:13.469Z,84.23
2024-01-11T01:56:40.233Z,83.81
2024-01-11T01:59:07.563Z,84.10
2024-01-11T02:01:35.259Z,84.64
2024-01-11T02:04:01.945Z,85.17
2024-01-11T02:06:31.476Z,84.77
2024-01-11T02:09:00.065Z,85.03
2024-01-11T02:11:27.788Z,85.34
2024-01-11T02:13:55.005Z,85.47
2024-01-11T02:16:21.640Z,85.55
2024-01-11T02:18:48.452Z,86.02
2024-01-11T02:21:16.733Z,86.00
2024-01-11T02:24:06.888Z,86.48
2024-01-11T02:26:34.440Z,86.73
2024-01-11T02:29:01.616Z,86.78
2024-01-11T02:31:28.353Z,87.45
2024-01-11T02:33:58.414Z,87.16
2024-01-11T02:36:26.410Z,87.67
2024-01-11T02:38:54.405Z,87.75
2024-01-11T02:41:22.589Z,87.78
2024-01-11T02:43:49.904Z,88.60
2024-01-11T02:46:17.811Z,88.60
2024-01-11T02:48:44.545Z,88.83
2024-01-11T02:51:11.304Z,89.04
2024-01-11T02:53:38.038Z,89.38
2024-01-11T02:56:05.085Z,89.52
2024-01-11T02:58:31.763Z,89.75
2024-01-11T03:00:58.767Z,89.91
2024-01-11T03:03:25.305Z,90.12
2024-01-11T03:05:51.991Z,90.37
2024-01-11T03:08:18.763Z,90.19
2024-01-11T03:10:47.669Z,90.78
2024-01-11T03:13:14.286Z,91.14
2024-01-11T03:15:40.804Z,91.85
2024-01-11T03:18:07.514Z,91.80
2024-01-11T03:20:34.352Z,92.20
2024-01-11T03:23:00.946Z,92.68
2024-01-11T03:25:27.726Z,92.72
2024-01-11T03:27:54.239Z,93.39
2024-01-11T03:30:21.109Z,93.72
2024-01-11T03:32:48.035Z,93.97
2024-01-11T03:35:14.792Z,94.37
2024-01-11T03:37:41.391Z,95.05
2024-01-11T03:40:08.480Z,94.74
2024-01-11T03:42:35.037Z,95.20
2024-01-11T03:45:01.711Z,95.99
2024-01-11T03:47:28.279Z,95.80
2024-01-11T03:49:55.293Z,95.95
2024-01-11T03:52:21.963Z,96.41
2024-01-11T03:54:48.682Z,96.59
2024-01-11T03:57:15.658Z,96.75
2024-01-11T03:59:42.503Z,96.88
2024-01-11T04:02:09.185Z,97.23
2024-01-11T04:04:35.845Z,97.82
2024-01-11T04:07:02.476Z,97.80
2024-01-11T04:09:30.359Z,98.13
2024-01-11T04:11:56.878Z,98.62
2024-01-11T04:14:23.457Z,99.17
2024-01-11T04:16:49.986Z,98.84
2024-01-11T04:19:22.485Z,99.55
2024-01-11T04:21:50.369Z,100.00
2024-01-11T04:24:16.866Z,100.00
2024-01-11T04:26:43.355Z,100.00
2024-01-11T04:29:11.196Z,100.00
2024-01-11T04:31:37.862Z,100.00
2024-01-11T04:34:04.647Z,100.00
2024-01-11T04:36:31.236Z,100.00
2024-01-11T04:38:59.201Z,100.00
2024-01-11T04:41:25.700Z,100.00
2024-01-11T04:43:52.231Z,100.00
2024-01-11T04:46:20.869Z,100.00
2024-01-11T04:48:50.041Z,100.00
2024-01-11T04:51:18.202Z,100.00
2024-01-11T04:53:46.064Z,100.00
2024-01-11T04:56:15.143Z,100.00
2024-01-11T04:58:43.372Z,100.00
2024-01-11T05:01:18.904Z,100.00
2024-01-11T05:03:47.394Z,100.00
2024-01-11T05:06:18.229Z,100.00
2024-01-11T05:08:46.224Z,100.00
2024-01-11T05:11:20.270Z,100.00
2024-01-11T05:13:49.067Z,100.00
2024-01-11T05:16:26.474Z,100.00
2024-01-11T05:18:55.681Z,100.00
2024-01-11T05:21:22.657Z,100.00
2024-01-11T05:23:50.069Z,100.00
2024-01-11T05:26:17.751Z,100.00
2024-01-11T05:28:44.486Z,100.00
2024-01-11T05:31:14.893Z,100.00
2024-01-11T05:33:42.230Z,100.00
2024-01-11T05:36:09.251Z,100.00
2024-01-11T05:38:36.590Z,100.00
2024-01-11T05:41:03.548Z,100.00
2024-01-11T05:43:30.145Z,100.00
2024-01-11T05:45:56.721Z,100.00
2024-01-11T05:48:23.356Z,100.00
2024-01-11T05:50:50.108Z,100.00
2024-01-11T05:53:18.318Z,100.00
2024-01-11T05:55:44.941Z,100.00
2024-01-11T05:58:11.448Z,100.00
2024-01-11T06:00:38.171Z,100.00
2024-01-11T06:03:05.899Z,100.00
2024-01-11T06:05:32.557Z,100.00
2024-01-11T06:07:59.284Z,100.00
2024-01-11T06:10:26.150Z,100.00
2024-01-11T06:12:52.674Z,100.00
2024-01-11T06:15:19.406Z,100.00
2024-01-11T06:17:46.035Z,100.00
2024-01-11T06:20:14.108Z,100.00
2024-01-11T06:22:42.866Z,100.00
2024-01-11T06:25:10.860Z,100.00
2024-01-11T06:27:37.358Z,100.00
2024-01-11T06:30:04.624Z,100.00
2024-01-11T06:32:31.313Z,100.00
2024-01-11T06:34:58.011Z,100.00
2024-01-11T06:37:24.603Z,100.00
2024-01-11T06:39:51.237Z,100.00
2024-01-11T06:42:19.810Z,100.00
2024-01-11T06:44:46.510Z,100.00
2024-01-11T06:47:13.011Z,100.00
2024-01-11T06:49:41.106Z,100.00
2024-01-11T06:52:07.802Z,100.00
2024-01-11T06:54:34.516Z,100.00
2024-01-11T06:57:01.082Z,100.00
2024-01-11T06:59:27.853Z,100.00
2024-01-11T07:01:54.387Z,100.00
2024-01-11T07:04:21.646Z,100.00
2024-01-11T07:06:48.474Z,100.00
2024-01-11T07:09:15.703Z,100.00
2024-01-11T07:11:42.885Z,100.00
2024-01-11T07:14:09.549Z,100.00
2024-01-11T07:16:36.843Z,100.00
2024-01-11T07:19:04.489Z,100.00
2024-01-11T07:21:32.440Z,100.00
2024-01-11T07:24:01.939Z,100.00
2024-01-11T07:26:28.680Z,100.00
2024-01-11T07:28:58.326Z,100.00
2024-01-11T07:31:25.226Z,100.00
2024-01-11T07:33:52.085Z,100.00
2024-01-11T07:36:18.861Z,100.00
2024-01-11T07:38:45.589Z,100.00
2024-01-11T07:41:13.131Z,100.00
2024-01-11T07:43:49.101Z,100.00
2024-01-11T07:46:26.271Z,100.00
2024-01-11T07:49:00.634Z,100.00
2024-01-11T07:51:28.044Z,100.00
2024-01-11T07:53:54.738Z,100.00
2024-01-11T07:56:21.401Z,100.00
2024-01-11T07:58:49.833Z,100.00
2024-01-11T08:01:17.886Z,100.00
2024-01-11T08:03:46.479Z,100.00
2024-01-11T08:06:13.588Z,100.00
2024-01-11T08:08:41.370Z,100.00
2024-01-11T08:11:13.361Z,100.00
2024-01-11T08:13:39.945Z,100.00
2024-01-11T08:16:10.840Z,100.00
2024-01-11T08:18:37.560Z,100.00
2024-01-11T08:21:07.773Z,100.00
2024-01-11T08:23:34.356Z,100.00
2024-01-11T08:26:00.984Z,100.00
2024-01-11T08:28:27.451Z,100.00
2024-01-11T08:30:54.161Z,100.00
2024-01-11T08:33:20.821Z,100.00
2024-01-11T08:35:47.739Z,100.00
2024-01-11T08:38:14.375Z,100.00
2024-01-11T08:40:41.297Z,100.00
2024-01-11T08:43:07.968Z,100.00
2024-01-11T08:45:34.597Z,100.00
2024-01-11T08:48:01.822Z,100.00
2024-01-11T08:50:29.613Z,100.00
2024-01-11T08:52:56.929Z,100.00
2024-01-11T08:55:23.784Z,100.00
2024-01-11T08:57:50.190Z,100.00
2024-01-11T09:00:19.222Z,100.00
2024-01-11T09:02:46.904Z,100.00
2024-01-11T09:05:15.507Z,100.00
2024-01-11T09:07:42.014Z,100.00
2024-01-11T09:10:12.694Z,100.00
2024-01-11T09:12:39.889Z,100.00
2024-01-11T09:15:07.127Z,100.00
2024-01-11T09:17:33.948Z,100.00
2024-01-11T09:20:01.248Z,100.00
2024-01-11T09:22:28.909Z,100.00
2024-01-11T09:24:55.408Z,100.00
2024-01-11T09:27:22.327Z,100.00
2024-01-11T09:29:51.277Z,100.00
2024-01-11T09:32:19.719Z,100.00
2024-01-11T09:34:46.940Z,100.00
2024-01-11T09:37:13.487Z,100.00
2024-01-11T09:39:40.187Z,100.00
2024-01-11T09:42:13.279Z,100.00
2024-01-11T09:44:40.655Z,100.00
2024-01-11T09:47:13.830Z,100.00
2024-01-11T09:49:49.560Z,100.00
2024-01-11T09:52:18.212Z,100.00
2024-01-11T09:54:44.942Z,100.00
2024-01-11T09:57:11.505Z,100.00
2024-01-11T09:59:38.487Z,100.00
2024-01-11T10:02:09.431Z,100.00
2024-01-11T10:04:36.713Z,100.00
2024-01-11T10:07:07.179Z,100.00
2024-01-11T10:09:34.356Z,100.00
2024-01-11T10:12:00.914Z,100.00
2024-01-11T10:14:27.793Z,100.00
2024-01-11T10:16:55.862Z,100.00
2024-01-11T10:19:23.041Z,100.00
2024-01-11T10:21:50.117Z,100.00
2024-01-11T10:24:21.637Z,100.00
2024-01-11T10:26:48.271Z,100.00
2024-01-11T10:29:15.381Z,100.00
2024-01-11T10:31:42.262Z,100.00
2024-01-11T10:34:09.593Z,100.00
2024-01-11T10:36:37.230Z,100.00
2024-01-11T10:39:08.568Z,100.00
2024-01-11T10:41:46.465Z,100.00
2024-01-11T10:44:22.899Z,100.00
2024-01-11T10:46:50.833Z,100.00
2024-01-11T10:49:21.141Z,100.00
2024-01-11T10:51:55.810Z,100.00
2024-01-11T10:54:24.094Z,100.00
2024-01-11T10:57:00.455Z,100.00
2024-01-11T10:59:28.663Z,100.00
2024-01-11T11:01:57.395Z,100.00
2024-01-11T11:04:24.975Z,100.00
2024-01-11T11:07:00.034Z,100.00
2024-01-11T11:09:28.916Z,100.00
2024-01-11T11:12:01.488Z,100.00
2024-01-11T11:14:29.580Z,100.00
2024-01-11T11:16:56.308Z,100.00
2024-01-11T11:19:23.322Z,100.00
2024-01-11T11:21:52.145Z,100.00
2024-01-11T11:24:19.901Z,100.00
2024-01-11T11:26:46.568Z,100.00
2024-01-11T11:29:13.398Z,100.00
2024-01-11T11:31:46.837Z,100.00
2024-01-11T11:34:14.062Z,100.00
2024-01-11T11:36:47.731Z,100.00
2024-01-11T11:39:14.852Z,100.00
2024-01-11T11:41:43.721Z,100.00
2024-01-11T11:44:14.371Z,100.00
2024-01-11T11:46:41.412Z,100.00
2024-01-11T11:49:08.228Z,100.00
2024-01-11T11:51:36.098Z,100.00
2024-01-11T11:54:03.698Z,100.00
2024-01-11T11:56:31.848Z,100.00
2024-01-11T11:58:59.593Z,100.00
2024-01-11T12:01:26.464Z,100.00
2024-01-11T12:03:53.968Z,100.00
2024-01-11T12:06:24.802Z,100.00
2024-01-11T12:08:57.113Z,100.00
2024-01-11T12:11:25.061Z,100.00
2024-01-11T12:13:53.441Z,100.00
2024-01-11T12:16:20.481Z,100.00
2024-01-11T12:18:47.128Z,100.00
2024-01-11T12:21:13.788Z,100.00
2024-01-11T12:23:41.225Z,100.00
2024-01-11T12:26:12.839Z,100.00
2024-01-11T12:28:41.581Z,100.00
2024-01-11T12:31:08.654Z,100.00
2024-01-11T12:33:36.748Z,100.00
2024-01-11T12:36:06.897Z,100.00
2024-01-11T12:38:35.163Z,100.00
2024-01-11T12:41:02.185Z,100.00
2024-01-11T12:43:28.788Z,100.00
2024-01-11T12:45:56.215Z,100.00
2024-01-11T12:48:23.104Z,100.00
2024-01-11T12:50:50.075Z,100.00
2024-01-11T12:53:20.439Z,100.00
2024-01-11T12:56:02.827Z,100.00
2024-01-11T12:58:29.800Z,100.00
2024-01-11T13:00:56.669Z,100.00
2024-01-11T13:03:24.256Z,100.00
2024-01-11T13:05:52.659Z,100.00
2024-01-11T13:08:21.280Z,100.00
2024-01-11T13:10:51.061Z,100.00
2024-01-11T13:13:17.850Z,100.00
2024-01-11T13:15:44.797Z,100.00
2024-01-11T13:18:11.352Z,100.00
2024-01-11T13:20:38.341Z,100.00
2024-01-11T13:23:20.571Z,100.00
2024-01-11T13:25:51.330Z,100.00
2024-01-11T13:28:19.470Z,100.00
2024-01-11T13:30:47.156Z,100.00
2024-01-11T13:33:13.966Z,100.00
2024-01-11T13:35:42.336Z,100.00
2024-01-11T13:38:09.101Z,100.00
2024-01-11T13:40:36.186Z,100.00
2024-01-11T13:43:04.092Z,100.00
2024-01-11T13:45:31.046Z,100.00
2024-01-11T13:47:58.349Z,100.00
2024-01-11T13:50:26.212Z,100.00
2024-01-11T13:52:54.011Z,100.00
2024-01-11T13:55:22.927Z,100.00
2024-01-11T13:57:51.593Z,100.00
2024-01-11T14:00:19.994Z,100.00
2024-01-11T14:02:48.753Z,100.00
2024-01-11T14:05:17.235Z,100.00
2024-01-11T14:07:45.828Z,100.00
2024-01-11T14:10:14.258Z,100.00
2024-01-11T14:12:41.195Z,100.00
2024-01-11T14:15:12.901Z,100.00
2024-01-11T14:17:40.700Z,100.00
2024-01-11T14:20:15.913Z,100.00
2024-01-11T14:22:48.233Z,100.00
2024-01-11T14:25:14.915Z,100.00
2024-01-11T14:27:42.385Z,100.00
2024-01-11T14:30:10.875Z,100.00
2024-01-11T14:32:39.216Z,100.00
2024-01-11T14:35:07.288Z,100.00
2024-01-11T14:37:39.792Z,100.00
2024-01-11T14:40:08.227Z,100.00
2024-01-11T14:42:34.872Z,100.00
2024-01-11T14:45:01.678Z,100.00
2024-01-11T14:47:28.622Z,100.00
2024-01-11T14:49:55.601Z,100.00
2024-01-11T14:52:22.263Z,100.00
2024-01-11T14:54:49.133Z,100.00
2024-01-11T14:57:16.738Z,100.00
2024-01-11T14:59:44.672Z,100.00
2024-01-11T15:02:11.936Z,100.00
2024-01-11T15:04:38.584Z,100.00
2024-01-11T15:07:05.884Z,100.00
2024-01-11T15:09:32.798Z,100.00
2024-01-11T15:12:01.246Z,100.00
2024-01-11T15:14:28.255Z,100.00
2024-01-11T15:16:54.858Z,100.00
2024-01-11T15:19:21.715Z,100.00
2024-01-11T15:21:50.334Z,100.00
2024-01-11T15:24:20.538Z,100.00
2024-01-11T15:26:49.815Z,100.00
2024-01-11T15:29:18.410Z,100.00
2024-01-11T15:31:46.988Z,100.00
2024-01-11T15:34:15.273Z,100.00
2024-01-11T15:36:42.116Z,100.00
2024-01-11T15:39:20.443Z,100.00
2024-01-11T15:41:55.608Z,100.00
2024-01-11T15:44:27.659Z,100.00
2024-01-11T15:46:54.550Z,100.00
2024-01-11T15:49:21.293Z,100.00
2024-01-11T15:51:47.858Z,100.00
2024-01-11T15:54:15.150Z,100.00
2024-01-11T15:56:42.032Z,100.00
2024-01-11T15:59:09.176Z,100.00
2024-01-11T16:01:46.540Z,100.00
2024-01-11T16:04:22.383Z,100.00
2024-01-11T16:06:48.970Z,100.00
2024-01-11T16:09:19.297Z,100.00
2024-01-11T16:11:49.634Z,100.00
2024-01-11T16:14:16.627Z,100.00
2024-01-11T16:16:43.579Z,100.00
2024-01-11T16:19:11.054Z,100.00
2024-01-11T16:21:37.786Z,100.00
2024-01-11T16:24:04.573Z,100.00
2024-01-11T16:26:31.205Z,100.00
2024-01-11T16:28:58.247Z,100.00
2024-01-11T16:31:28.916Z,100.00
2024-01-11T16:33:56.096Z,100.00
2024-01-11T16:36:22.587Z,100.00
2024-01-11T16:38:49.389Z,100.00
2024-01-11T16:41:16.239Z,100.00
2024-01-11T16:43:44.618Z,100.00
2024-01-11T16:46:21.825Z,100.00
2024-01-11T16:48:49.459Z,100.00
2024-01-11T16:51:15.982Z,100.00
2024-01-11T16:53:45.713Z,100.00
2024-01-11T16:56:12.915Z,100.00
2024-01-11T16:58:39.461Z,100.00
2024-01-11T17:01:06.214Z,100.00
2024-01-11T17:03:32.863Z,100.00
2024-01-11T17:05:59.417Z,100.00
2024-01-11T17:08:26.253Z,100.00
2024-01-11T17:10:53.107Z,100.00
2024-01-11T17:13:19.679Z,100.00
2024-01-11T17:15:46.253Z,100.00
2024-01-11T17:18:12.801Z,100.00
2024-01-11T17:20:39.679Z,100.00
2024-01-11T17:23:06.356Z,100.00
2024-01-11T17:25:32.847Z,100.00
2024-01-11T17:27:59.341Z,100.00
2024-01-11T17:30:26.142Z,100.00
2024-01-11T17:32:55.137Z,100.00
2024-01-11T17:35:23.023Z,100.00
2024-01-11T17:37:49.512Z,100.00
2024-01-11T17:40:16.158Z,100.00
2024-01-11T17:42:42.655Z,100.00
2024-01-11T17:45:11.069Z,100.00
2024-01-11T17:47:37.669Z,100.00
2024-01-11T17:50:04.730Z,100.00
2024-01-11T17:52:31.200Z,100.00
2024-01-11T17:54:57.718Z,100.00
2024-01-11T17:57:24.252Z,100.00
2024-01-11T17:59:51.198Z,100.00
2024-01-11T18:02:17.830Z,100.00
2024-01-11T18:04:44.521Z,100.00
2024-01-11T18:07:12.132Z,100.00
2024-01-11T18:09:38.939Z,100.00
2024-01-11T18:12:05.810Z,100.00
2024-01-11T18:14:32.332Z,100.00
2024-01-11T18:16:58.763Z,100.00
2024-01-11T18:19:25.752Z,100.00
2024-01-11T18:21:52.280Z,100.00
2024-01-11T18:24:19.011Z,100.00
2024-01-11T18:26:45.776Z,100.00
2024-01-11T18:29:12.779Z,100.00
2024-01-11T18:31:39.711Z,100.00
2024-01-11T18:34:06.695Z,100.00
2024-01-11T18:36:43.850Z,100.00
2024-01-11T18:39:10.691Z,100.00
2024-01-11T18:41:37.172Z,100.00
2024-01-11T18:44:03.691Z,100.00
2024-01-11T18:46:30.213Z,100.00
2024-01-11T18:48:56.922Z,100.00
2024-01-11T18:51:23.484Z,100.00
2024-01-11T18:53:50.074Z,100.00
2024-01-11T18:56:17.011Z,100.00
2024-01-11T18:58:43.793Z,100.00
2024-01-11T19:01:10.717Z,100.00
2024-01-11T19:03:39.904Z,100.00
2024-01-11T19:06:10.166Z,100.00
2024-01-11T19:08:37.104Z,100.00
2024-01-11T19:11:04.366Z,100.00
2024-01-11T19:13:30.956Z,100.00
2024-01-11T19:15:57.531Z,100.00
2024-01-11T19:18:24.302Z,100.00
2024-01-11T19:20:54.974Z,100.00
2024-01-11T19:23:26.747Z,100.00
2024-01-11T19:25:57.081Z,100.00
2024-01-11T19:28:24.744Z,100.00
2024-01-11T19:30:54.266Z,100.00
2024-01-11T19:33:20.815Z,100.00
2024-01-11T19:35:47.595Z,100.00
2024-01-11T19:38:14.867Z,100.00
2024-01-11T19:40:44.610Z,100.00
2024-01-11T19:43:11.136Z,100.00
2024-01-11T19:45:37.731Z,100.00
2024-01-11T19:48:04.862Z,100.00
2024-01-11T19:50:34.164Z,100.00
2024-01-11T19:53:01.284Z,100.00
2024-01-11T19:55:27.813Z,100.00
2024-01-11T19:57:54.372Z,100.00
2024-01-11T20:00:21.045Z,100.00
2024-01-11T20:02:47.612Z,100.00
2024-01-11T20:05:14.435Z,100.00
2024-01-11T20:07:40.965Z,100.00
2024-01-11T20:10:08.294Z,100.00
2024-01-11T20:12:35.600Z,100.00
2024-01-11T20:15:02.246Z,100.00
2024-01-11T20:17:29.708Z,100.00
2024-01-11T20:19:56.810Z,100.00
2024-01-11T20:22:23.414Z,100.00
2024-01-11T20:24:51.866Z,100.00
2024-01-11T20:27:18.595Z,100.00
2024-01-11T20:29:45.200Z,100.00
2024-01-11T20:32:11.760Z,100.00
2024-01-11T20:34:38.426Z,100.00
2024-01-11T20:37:05.168Z,100.00
2024-01-11T20:39:31.958Z,100.00
2024-01-11T20:41:58.759Z,100.00
2024-01-11T20:44:25.468Z,100.00
2024-01-11T20:46:52.259Z,100.00
2024-01-11T20:49:19.444Z,100.00
2024-01-11T20:51:46.718Z,100.00
2024-01-11T20:54:13.772Z,100.00
2024-01-11T20:56:44.877Z,100.00
2024-01-11T20:59:12.684Z,100.00
2024-01-11T21:01:39.515Z,100.00
2024-01-11T21:04:06.225Z,100.00
2024-01-11T21:06:33.132Z,100.00
2024-01-11T21:09:00.571Z,100.00
2024-01-11T21:11:27.207Z,100.00
2024-01-11T21:13:54.142Z,100.00
2024-01-11T21:16:20.604Z,100.00
2024-01-11T21:18:52.271Z,100.00
2024-01-11T21:21:23.503Z,100.00
2024-01-11T21:23:57.622Z,100.00
2024-01-11T21:26:25.024Z,100.00
2024-01-11T21:28:54.528Z,100.00
2024-01-11T21:31:26.021Z,100.00
2024-01-11T21:33:52.888Z,100.00
2024-01-11T21:36:23.891Z,100.00
2024-01-11T21:38:52.225Z,100.00
2024-01-11T21:41:18.721Z,100.00
2024-01-11T21:43:45.333Z,100.00
2024-01-11T21:46:11.817Z,100.00
2024-01-11T21:48:38.473Z,100.00
2024-01-11T21:51:05.369Z,100.00
2024-01-11T21:53:31.978Z,100.00
2024-01-11T21:55:58.420Z,100.00
2024-01-11T21:58:25.900Z,100.00
2024-01-11T22:00:54.811Z,100.00
2024-01-11T22:03:21.542Z,100.00
2024-01-11T22:05:48.177Z,100.00
2024-01-11T22:08:15.983Z,100.00
2024-01-11T22:10:43.076Z,100.00
2024-01-11T22:13:09.911Z,100.00
2024-01-11T22:15:37.412Z,100.00
2024-01-11T22:18:05.291Z,100.00
2024-01-11T22:20:32.836Z,100.00
2024-01-11T22:23:00.247Z,100.00
2024-01-11T22:25:27.092Z,100.00
2024-01-11T22:27:53.971Z,100.00
2024-01-11T22:30:20.992Z,100.00
2024-01-11T22:32:48.904Z,100.00
2024-01-11T22:35:15.702Z,100.00
2024-01-11T22:37:42.124Z,100.00
2024-01-11T22:40:09.431Z,100.00
2024-01-11T22:42:35.923Z,100.00
2024-01-11T22:45:03.096Z,100.00
2024-01-11T22:47:29.692Z,100.00
2024-01-11T22:49:56.372Z,100.00
2024-01-11T22:52:22.852Z,100.00
2024-01-11T22:54:49.321Z,100.00
2024-01-11T22:57:15.984Z,100.00
2024-01-11T22:59:42.600Z,100.00
2024-01-11T23:02:09.315Z,100.00
2024-01-11T23:04:35.910Z,100.00
2024-01-11T23:07:02.428Z,100.00
2024-01-11T23:09:29.333Z,100.00
2024-01-11T23:11:55.845Z,100.00
2024-01-11T23:14:24.988Z,100.00
2024-01-11T23:16:52.104Z,100.00
2024-01-11T23:19:19.209Z,100.00
2024-01-11T23:21:45.819Z,100.00
2024-01-11T23:24:12.436Z,100.00
2024-01-11T23:26:39.791Z,100.00
2024-01-11T23:29:06.711Z,100.00
2024-01-11T23:31:33.285Z,100.00
2024-01-11T23:33:59.810Z,100.00
2024-01-11T23:36:26.270Z,100.00
2024-01-11T23:38:53.071Z,100.00
2024-01-11T23:41:19.767Z,100.00
2024-01-11T23:43:46.257Z,100.00
2024-01-11T23:46:12.734Z,100.00
2024-01-11T23:48:39.467Z,100.00
2024-01-11T23:51:06.690Z,100.00
2024-01-11T23:53:33.265Z,100.00
2024-01-11T23:55:59.903Z,100.00
2024-01-11T23:58:26.413Z,100.00
